createdAt,value
2022-11-16T00:00:28.513Z,97548.81
2022-11-16T00:02:57.024Z,97557.69
2022-11-16T00:05:28.538Z,97555.63
2022-11-16T00:07:57.092Z,97559.69
2022-11-16T00:10:26.772Z,97553.53
2022-11-16T00:12:55.126Z,97561.03
2022-11-16T00:15:23.497Z,97571.03
2022-11-16T00:17:51.930Z,97574.38
2022-11-16T00:20:20.371Z,97569.09
2022-11-16T00:22:48.772Z,97573.66
2022-11-16T00:25:17.144Z,97574.88
2022-11-16T00:27:46.813Z,97566.75
2022-11-16T00:30:15.704Z,97577.22
2022-11-16T00:32:44.330Z,97573.81
2022-11-16T00:35:12.796Z,97573.16
2022-11-16T00:37:41.168Z,97569.38
2022-11-16T00:40:10.964Z,97558.66
2022-11-16T00:42:39.315Z,97542.69
2022-11-16T00:45:10.708Z,97542.41
2022-11-16T00:47:39.474Z,97539.50
2022-11-16T00:50:08.184Z,97543.38
2022-11-16T00:52:36.650Z,97536.47
2022-11-16T00:55:06.101Z,97539.88
2022-11-16T00:57:36.195Z,97540.91
2022-11-16T01:00:06.337Z,97529.50
2022-11-16T01:02:37.377Z,97529.59
2022-11-16T01:05:06.861Z,97534.69
2022-11-16T01:07:36.156Z,97530.25
2022-11-16T01:10:07.108Z,97529.41
2022-11-16T01:12:36.843Z,97530.63
2022-11-16T01:15:08.809Z,97539.81
2022-11-16T01:17:41.407Z,97547.81
2022-11-16T01:20:14.394Z,97540.84
2022-11-16T01:22:43.105Z,97544.34
2022-11-16T01:25:12.817Z,97546.03
2022-11-16T01:27:42.241Z,97543.25
2022-11-16T01:30:17.187Z,97542.59
2022-11-16T01:32:56.553Z,97542.31
2022-11-16T01:35:25.066Z,97526.97
2022-11-16T01:37:53.882Z,97526.91
2022-11-16T01:40:22.229Z,97523.00
2022-11-16T01:42:50.773Z,97530.25
2022-11-16T01:45:29.218Z,97528.16
2022-11-16T01:48:02.059Z,97520.84
2022-11-16T01:50:34.233Z,97533.84
2022-11-16T01:53:05.682Z,97534.13
2022-11-16T01:55:42.755Z,97541.47
2022-11-16T01:58:18.727Z,97533.56
2022-11-16T02:00:50.660Z,97527.66
2022-11-16T02:03:46.468Z,97520.03
2022-11-16T02:06:33.656Z,97523.19
2022-11-16T02:09:50.371Z,97523.47
2022-11-16T02:12:38.987Z,97526.84
2022-11-16T02:15:17.039Z,97525.50
2022-11-16T02:18:04.300Z,97525.59
2022-11-16T02:21:03.655Z,97522.13
2022-11-16T02:23:56.809Z,97523.81
2022-11-16T02:26:48.149Z,97523.81
2022-11-16T02:29:23.641Z,97514.47
2022-11-16T02:31:55.383Z,97519.13
2022-11-16T02:34:24.766Z,97529.00
2022-11-16T02:36:56.300Z,97530.28
2022-11-16T02:39:28.359Z,97536.22
2022-11-16T02:41:59.601Z,97542.34
2022-11-16T02:44:33.590Z,97545.22
2022-11-16T02:47:06.257Z,97534.28
2022-11-16T02:49:37.497Z,97551.78
2022-11-16T02:52:06.475Z,97549.00
2022-11-16T02:54:34.940Z,97545.59
2022-11-16T02:57:38.840Z,97537.56
2022-11-16T03:00:16.772Z,97542.19
2022-11-16T03:02:52.081Z,97553.00
2022-11-16T03:05:31.881Z,97534.88
2022-11-16T03:08:10.702Z,97556.28
2022-11-16T03:11:00.433Z,97559.69
2022-11-16T03:13:33.100Z,97557.31
2022-11-16T03:16:09.059Z,97562.72
2022-11-16T03:18:38.763Z,97568.16
2022-11-16T03:21:14.342Z,97565.78
2022-11-16T03:23:46.228Z,97574.34
2022-11-16T03:26:19.532Z,97581.78
2022-11-16T03:28:55.942Z,97582.56
2022-11-16T03:31:30.715Z,97572.34
2022-11-16T03:34:05.392Z,97575.75
2022-11-16T03:36:36.717Z,97577.09
2022-11-16T03:39:09.336Z,97568.41
2022-11-16T03:41:42.413Z,97579.22
2022-11-16T03:44:13.903Z,97565.28
2022-11-16T03:46:45.475Z,97568.69
2022-11-16T03:49:15.668Z,97580.91
2022-11-16T03:51:44.844Z,97583.97
2022-11-16T03:54:13.855Z,97580.06
2022-11-16T03:56:42.247Z,97578.50
2022-11-16T03:59:11.080Z,97580.06
2022-11-16T04:01:44.496Z,97575.63
2022-11-16T04:04:29.518Z,97576.25
2022-11-16T04:07:15.955Z,97581.41
2022-11-16T04:10:01.893Z,97591.13
2022-11-16T04:12:48.259Z,97591.13
2022-11-16T04:15:49.819Z,97595.94
2022-11-16T04:18:36.287Z,97600.91
2022-11-16T04:21:31.577Z,97611.13
2022-11-16T04:24:15.375Z,97606.00
2022-11-16T04:27:03.954Z,97607.41
2022-11-16T04:29:33.876Z,97599.22
2022-11-16T04:32:20.380Z,97611.38
2022-11-16T04:35:06.626Z,97603.44
2022-11-16T04:37:52.679Z,97616.44
2022-11-16T04:40:30.224Z,97616.75
2022-11-16T04:43:16.571Z,97618.59
2022-11-16T04:46:03.980Z,97617.47
2022-11-16T04:48:40.207Z,97621.72
2022-11-16T04:51:09.183Z,97628.13
2022-11-16T04:53:39.207Z,97632.63
2022-11-16T04:56:18.567Z,97625.97
2022-11-16T04:58:47.888Z,97624.53
2022-11-16T05:01:17.103Z,97615.09
2022-11-16T05:03:45.626Z,97618.28
2022-11-16T05:06:14.724Z,97621.38
2022-11-16T05:08:44.466Z,97625.56
2022-11-16T05:11:13.045Z,97618.72
2022-11-16T05:13:41.829Z,97626.75
2022-11-16T05:16:10.610Z,97622.72
2022-11-16T05:18:39.472Z,97629.34
2022-11-16T05:21:07.613Z,97617.31
2022-11-16T05:23:56.555Z,97621.22
2022-11-16T05:26:29.352Z,97623.88
2022-11-16T05:28:58.008Z,97630.91
2022-11-16T05:31:26.505Z,97648.66
2022-11-16T05:33:54.955Z,97647.53
2022-11-16T05:36:24.143Z,97644.09
2022-11-16T05:38:56.329Z,97641.94
2022-11-16T05:41:30.073Z,97640.09
2022-11-16T05:44:00.268Z,97639.94
2022-11-16T05:46:28.723Z,97657.75
2022-11-16T05:48:59.832Z,97660.31
2022-11-16T05:51:31.224Z,97655.06
2022-11-16T05:54:00.567Z,97654.00
2022-11-16T05:56:31.000Z,97657.69
2022-11-16T05:59:00.251Z,97649.53
2022-11-16T06:01:28.673Z,97652.22
2022-11-16T06:03:59.872Z,97649.38
2022-11-16T06:06:28.426Z,97657.41
2022-11-16T06:08:58.345Z,97653.69
2022-11-16T06:11:35.357Z,97656.75
2022-11-16T06:14:05.218Z,97659.56
2022-11-16T06:16:35.348Z,97655.88
2022-11-16T06:19:08.301Z,97655.16
2022-11-16T06:21:42.030Z,97652.69
2022-11-16T06:24:16.585Z,97661.72
2022-11-16T06:26:47.972Z,97658.72
2022-11-16T06:29:16.544Z,97656.44
2022-11-16T06:31:45.027Z,97655.00
2022-11-16T06:34:14.229Z,97655.47
2022-11-16T06:36:42.672Z,97660.78
2022-11-16T06:39:11.862Z,97662.03
2022-11-16T06:41:41.604Z,97665.03
2022-11-16T06:44:13.947Z,97662.81
2022-11-16T06:46:52.817Z,97659.59
2022-11-16T06:49:21.185Z,97659.19
2022-11-16T06:51:51.591Z,97664.75
2022-11-16T06:54:20.643Z,97664.75
2022-11-16T06:56:49.093Z,97673.22
2022-11-16T06:59:19.607Z,97673.22
2022-11-16T07:01:48.238Z,97681.41
2022-11-16T07:04:16.738Z,97678.50
2022-11-16T07:06:52.526Z,97682.47
2022-11-16T07:09:21.164Z,97692.44
2022-11-16T07:11:49.630Z,97689.38
2022-11-16T07:14:20.904Z,97699.63
2022-11-16T07:16:54.890Z,97699.81
2022-11-16T07:19:26.639Z,97705.28
2022-11-16T07:21:55.019Z,97701.53
2022-11-16T07:24:24.132Z,97697.38
2022-11-16T07:26:52.544Z,97698.59
2022-11-16T07:29:25.307Z,97707.03
2022-11-16T07:32:22.770Z,97709.94
2022-11-16T07:35:23.146Z,97701.63
2022-11-16T07:37:52.167Z,97714.69
2022-11-16T07:40:21.205Z,97699.56
2022-11-16T07:42:50.517Z,97707.63
2022-11-16T07:45:38.702Z,97703.41
2022-11-16T07:48:09.688Z,97711.28
2022-11-16T07:51:01.344Z,97710.03
2022-11-16T07:53:31.654Z,97717.91
2022-11-16T07:56:00.458Z,97731.34
2022-11-16T07:58:33.661Z,97735.34
2022-11-16T08:01:05.983Z,97728.81
2022-11-16T08:03:36.856Z,97731.91
2022-11-16T08:06:09.240Z,97729.63
2022-11-16T08:08:37.774Z,97735.78
2022-11-16T08:11:08.345Z,97736.44
2022-11-16T08:13:38.580Z,97723.91
2022-11-16T08:16:11.883Z,97722.03
2022-11-16T08:18:41.648Z,97724.66
2022-11-16T08:21:12.784Z,97729.78
2022-11-16T08:23:41.835Z,97724.41
2022-11-16T08:26:14.273Z,97725.94
2022-11-16T08:28:45.581Z,97725.84
2022-11-16T08:31:17.596Z,97730.53
2022-11-16T08:33:48.880Z,97730.72
2022-11-16T08:36:18.161Z,97737.31
2022-11-16T08:38:49.814Z,97742.91
2022-11-16T08:41:21.309Z,97743.16
2022-11-16T08:43:53.118Z,97739.59
2022-11-16T08:46:24.224Z,97753.84
2022-11-16T08:49:01.127Z,97760.59
2022-11-16T08:51:29.591Z,97762.53
2022-11-16T08:54:06.133Z,97756.72
2022-11-16T08:56:37.130Z,97764.97
2022-11-16T08:59:06.674Z,97754.63
2022-11-16T09:01:36.464Z,97758.69
2022-11-16T09:04:05.434Z,97747.25
2022-11-16T09:06:33.896Z,97757.03
2022-11-16T09:09:02.359Z,97765.47
2022-11-16T09:11:31.024Z,97765.69
2022-11-16T09:13:59.973Z,97768.59
2022-11-16T09:16:28.322Z,97772.97
2022-11-16T09:18:58.095Z,97767.34
2022-11-16T09:21:29.001Z,97764.91
2022-11-16T09:23:58.597Z,97764.06
2022-11-16T09:26:27.390Z,97766.13
2022-11-16T09:28:58.127Z,97758.31
2022-11-16T09:31:27.787Z,97755.63
2022-11-16T09:33:58.892Z,97756.00
2022-11-16T09:36:28.633Z,97756.88
2022-11-16T09:42:01.024Z,97761.34
2022-11-16T09:44:42.206Z,97767.06
2022-11-16T09:47:17.376Z,97763.41
2022-11-16T09:49:54.106Z,97762.06
2022-11-16T09:52:31.590Z,97772.81
2022-11-16T09:55:04.661Z,97772.44
2022-11-16T09:57:40.305Z,97767.59
2022-11-16T10:00:15.303Z,97763.25
2022-11-16T10:02:48.664Z,97762.69
2022-11-16T10:05:22.932Z,97758.44
2022-11-16T10:07:55.923Z,97757.44
2022-11-16T10:10:36.527Z,97762.44
2022-11-16T10:13:13.688Z,97758.34
2022-11-16T10:16:02.284Z,97755.44
2022-11-16T10:18:47.391Z,97750.66
2022-11-16T10:21:32.982Z,97750.94
2022-11-16T10:24:42.864Z,97744.94
2022-11-16T10:27:32.866Z,97748.38
2022-11-16T10:30:10.328Z,97742.38
2022-11-16T10:32:46.540Z,97739.59
2022-11-16T10:35:19.951Z,97741.97
2022-11-16T10:37:52.404Z,97737.22
2022-11-16T10:40:24.560Z,97745.06
2022-11-16T10:43:02.032Z,97734.31
2022-11-16T10:45:39.067Z,97731.81
2022-11-16T10:48:17.101Z,97736.69
2022-11-16T10:50:47.748Z,97740.84
2022-11-16T10:53:28.436Z,97733.47
2022-11-16T10:56:12.469Z,97732.75
2022-11-16T10:58:56.099Z,97731.06
2022-11-16T11:01:36.735Z,97715.34
2022-11-16T11:04:17.408Z,97735.84
2022-11-16T11:06:47.058Z,97724.38
2022-11-16T11:09:24.561Z,97718.75
2022-11-16T11:12:22.511Z,97716.28
2022-11-16T11:15:00.701Z,97716.09
2022-11-16T11:17:29.993Z,97708.88
2022-11-16T11:20:00.551Z,97713.78
2022-11-16T11:22:29.351Z,97703.69
2022-11-16T11:24:59.346Z,97703.97
2022-11-16T11:27:33.369Z,97696.00
2022-11-16T11:30:03.810Z,97690.16
2022-11-16T11:32:35.679Z,97691.91
2022-11-16T11:35:06.461Z,97688.69
2022-11-16T11:37:38.684Z,97678.78
2022-11-16T11:40:24.712Z,97688.84
2022-11-16T11:42:56.252Z,97685.59
2022-11-16T11:45:30.914Z,97684.38
2022-11-16T11:48:03.061Z,97683.69
2022-11-16T11:50:44.137Z,97671.47
2022-11-16T11:53:22.284Z,97675.97
2022-11-16T11:55:58.831Z,97676.72
2022-11-16T11:58:31.418Z,97683.38
2022-11-16T12:01:29.553Z,97687.03
2022-11-16T12:04:35.954Z,97687.97
2022-11-16T12:07:14.277Z,97678.75
2022-11-16T12:09:51.547Z,97672.50
2022-11-16T12:12:36.176Z,97659.25
2022-11-16T12:15:27.575Z,97643.78
2022-11-16T12:18:03.948Z,97646.81
2022-11-16T12:20:43.079Z,97640.97
2022-11-16T12:23:27.601Z,97645.75
2022-11-16T12:26:03.569Z,97644.09
2022-11-16T12:28:50.846Z,97623.03
2022-11-16T12:31:45.275Z,97627.06
2022-11-16T12:34:23.986Z,97618.66
2022-11-16T12:37:00.720Z,97628.44
2022-11-16T12:39:44.187Z,97637.75
2022-11-16T12:42:30.903Z,97629.78
2022-11-16T12:45:32.401Z,97618.84
2022-11-16T12:48:19.819Z,97616.25
2022-11-16T12:50:58.641Z,97610.81
2022-11-16T12:53:52.625Z,97608.78
2022-11-16T12:56:29.361Z,97608.41
2022-11-16T12:59:42.941Z,97607.03
2022-11-16T13:02:28.752Z,97614.47
2022-11-16T13:04:59.206Z,97616.38
2022-11-16T13:07:32.875Z,97614.66
2022-11-16T13:10:06.208Z,97615.50
2022-11-16T13:12:38.596Z,97614.88
2022-11-16T13:15:23.387Z,97606.34
2022-11-16T13:18:02.989Z,97587.31
2022-11-16T13:20:39.593Z,97580.69
2022-11-16T13:23:15.562Z,97575.13
2022-11-16T13:25:49.933Z,97570.34
2022-11-16T13:28:32.098Z,97569.31
2022-11-16T13:31:07.127Z,97573.84
2022-11-16T13:33:49.196Z,97591.31
2022-11-16T13:36:45.455Z,97578.28
2022-11-16T13:39:22.854Z,97578.09
2022-11-16T13:42:05.996Z,97585.41
2022-11-16T13:44:35.152Z,97575.75
2022-11-16T13:47:07.096Z,97577.56
2022-11-16T13:49:40.810Z,97582.44
2022-11-16T13:52:46.856Z,97573.22
2022-11-16T13:55:12.708Z,97574.25
2022-11-16T13:57:51.777Z,97574.38
2022-11-16T14:00:28.714Z,97588.97
2022-11-16T14:03:32.310Z,97586.19
2022-11-16T14:06:02.340Z,97584.94
2022-11-16T14:08:48.277Z,97584.72
2022-11-16T14:11:29.925Z,97577.56
2022-11-16T14:14:00.161Z,97570.66
2022-11-16T14:16:55.915Z,97570.16
2022-11-16T14:19:54.885Z,97563.81
2022-11-16T14:22:44.442Z,97575.56
2022-11-16T14:25:27.568Z,97569.59
2022-11-16T14:28:06.496Z,97575.59
2022-11-16T14:30:49.619Z,97581.25
2022-11-16T14:33:31.931Z,97566.59
2022-11-16T14:36:03.300Z,97560.22
2022-11-16T14:38:35.013Z,97556.34
2022-11-16T14:41:05.925Z,97554.88
2022-11-16T14:43:40.400Z,97544.38
2022-11-16T14:46:17.065Z,97548.59
2022-11-16T14:48:46.514Z,97552.41
2022-11-16T14:51:19.826Z,97550.63
2022-11-16T14:53:53.127Z,97549.25
2022-11-16T14:56:21.771Z,97549.09
2022-11-16T14:58:55.682Z,97544.53
2022-11-16T15:01:28.330Z,97536.25
2022-11-16T15:04:03.265Z,97539.34
2022-11-16T15:06:37.863Z,97540.94
2022-11-16T15:09:07.775Z,97532.06
2022-11-16T15:12:04.156Z,97531.50
2022-11-16T15:14:35.210Z,97526.09
2022-11-16T15:17:04.101Z,97522.78
2022-11-16T15:19:32.591Z,97523.19
2022-11-16T15:22:02.521Z,97528.56
2022-11-16T15:24:33.987Z,97517.25
2022-11-16T15:27:11.926Z,97524.16
2022-11-16T15:29:40.519Z,97519.75
2022-11-16T15:32:17.057Z,97518.94
2022-11-16T15:34:48.644Z,97522.63
2022-11-16T15:37:27.549Z,97520.41
2022-11-16T15:39:58.275Z,97514.63
2022-11-16T15:42:28.688Z,97509.28
2022-11-16T15:44:57.559Z,97506.97
2022-11-16T15:47:26.939Z,97492.22
2022-11-16T15:49:55.753Z,97500.84
2022-11-16T15:52:43.430Z,97492.75
2022-11-16T15:55:36.750Z,97488.38
2022-11-16T15:58:15.088Z,97480.88
2022-11-16T16:00:49.404Z,97479.69
2022-11-16T16:03:21.650Z,97480.84
2022-11-16T16:05:56.690Z,97471.50
2022-11-16T16:08:32.106Z,97482.53
2022-11-16T16:11:09.746Z,97468.28
2022-11-16T16:13:40.201Z,97477.00
2022-11-16T16:16:24.781Z,97464.41
2022-11-16T16:18:54.543Z,97471.16
2022-11-16T16:21:24.341Z,97467.72
2022-11-16T16:23:54.950Z,97478.63
2022-11-16T16:26:24.983Z,97469.88
2022-11-16T16:28:53.716Z,97462.00
2022-11-16T16:31:22.370Z,97468.03
2022-11-16T16:33:50.825Z,97467.00
2022-11-16T16:36:19.182Z,97459.13
2022-11-16T16:38:47.639Z,97450.31
2022-11-16T16:41:23.959Z,97457.03
2022-11-16T16:43:54.574Z,97458.88
2022-11-16T16:46:23.034Z,97454.47
2022-11-16T16:48:51.570Z,97456.88
2022-11-16T16:51:20.092Z,97455.44
2022-11-16T16:53:48.561Z,97449.41
2022-11-16T16:56:19.831Z,97453.31
2022-11-16T16:58:48.343Z,97430.50
2022-11-16T17:01:18.324Z,97423.94
2022-11-16T17:03:46.865Z,97425.78
2022-11-16T17:06:15.217Z,97415.09
2022-11-16T17:08:43.642Z,97418.94
2022-11-16T17:11:12.252Z,97413.22
2022-11-16T17:13:40.745Z,97410.63
2022-11-16T17:16:09.239Z,97402.50
2022-11-16T17:18:39.018Z,97401.19
2022-11-16T17:21:09.317Z,97390.69
2022-11-16T17:23:38.259Z,97384.88
2022-11-16T17:26:08.767Z,97388.66
2022-11-16T17:28:37.147Z,97385.72
2022-11-16T17:31:07.360Z,97379.19
2022-11-16T17:33:36.059Z,97386.47
2022-11-16T17:36:07.987Z,97385.75
2022-11-16T17:38:36.643Z,97387.91
2022-11-16T17:41:06.602Z,97394.88
2022-11-16T17:43:36.068Z,97394.44
2022-11-16T17:46:06.561Z,97395.72
2022-11-16T17:48:35.141Z,97387.38
2022-11-16T17:51:04.016Z,97380.19
2022-11-16T17:53:37.851Z,97386.88
2022-11-16T17:56:07.342Z,97381.69
2022-11-16T17:58:35.811Z,97373.53
2022-11-16T18:01:04.395Z,97377.22
2022-11-16T18:03:33.168Z,97367.56
2022-11-16T18:06:04.960Z,97373.59
2022-11-16T18:08:35.578Z,97383.03
2022-11-16T18:11:06.290Z,97374.53
2022-11-16T18:13:35.455Z,97378.00
2022-11-16T18:16:08.727Z,97372.25
2022-11-16T18:18:37.812Z,97363.91
2022-11-16T18:21:07.985Z,97367.84
2022-11-16T18:23:39.229Z,97360.03
2022-11-16T18:26:08.884Z,97375.44
2022-11-16T18:28:39.010Z,97361.53
2022-11-16T18:31:10.581Z,97355.50
2022-11-16T18:33:39.723Z,97357.13
2022-11-16T18:36:09.870Z,97364.28
2022-11-16T18:38:40.254Z,97369.25
2022-11-16T18:41:17.030Z,97364.84
2022-11-16T18:43:50.132Z,97373.41
2022-11-16T18:46:19.372Z,97365.72
2022-11-16T18:48:48.283Z,97357.72
2022-11-16T18:51:18.144Z,97348.00
2022-11-16T18:53:48.413Z,97355.75
2022-11-16T18:56:17.640Z,97353.78
2022-11-16T18:58:51.388Z,97352.63
2022-11-16T19:01:24.034Z,97345.53
2022-11-16T19:03:53.298Z,97351.78
2022-11-16T19:06:22.605Z,97348.41
2022-11-16T19:08:59.310Z,97342.44
2022-11-16T19:11:29.251Z,97333.66
2022-11-16T19:14:00.431Z,97333.41
2022-11-16T19:16:29.105Z,97325.38
2022-11-16T19:18:57.784Z,97323.91
2022-11-16T19:21:26.541Z,97307.81
2022-11-16T19:23:57.552Z,97299.25
2022-11-16T19:26:27.826Z,97306.31
2022-11-16T19:28:56.965Z,97297.19
2022-11-16T19:31:27.137Z,97291.59
2022-11-16T19:33:59.934Z,97271.97
2022-11-16T19:36:29.693Z,97270.84
2022-11-16T19:38:59.619Z,97252.09
2022-11-16T19:41:29.496Z,97251.91
2022-11-16T19:44:01.445Z,97247.06
2022-11-16T19:46:31.395Z,97236.72
2022-11-16T19:49:00.426Z,97224.06
2022-11-16T19:51:30.594Z,97212.69
2022-11-16T19:54:01.244Z,97218.28
2022-11-16T19:56:29.833Z,97223.16
2022-11-16T19:58:58.230Z,97213.31
2022-11-16T20:01:33.388Z,97211.09
2022-11-16T20:04:03.462Z,97210.31
2022-11-16T20:06:34.255Z,97197.91
2022-11-16T20:09:08.570Z,97203.75
2022-11-16T20:11:38.965Z,97203.66
2022-11-16T20:14:10.206Z,97194.47
2022-11-16T20:16:40.613Z,97193.34
2022-11-16T20:19:10.504Z,97188.19
2022-11-16T20:21:40.821Z,97182.91
2022-11-16T20:24:12.959Z,97168.13
2022-11-16T20:26:43.592Z,97162.50
2022-11-16T20:29:12.718Z,97152.16
2022-11-16T20:31:42.884Z,97158.44
2022-11-16T20:34:14.406Z,97152.88
2022-11-16T20:36:44.340Z,97154.00
2022-11-16T20:39:15.482Z,97157.69
2022-11-16T20:41:44.798Z,97150.41
2022-11-16T20:44:17.009Z,97146.38
2022-11-16T20:46:46.042Z,97145.19
2022-11-16T20:49:14.724Z,97148.94
2022-11-16T20:51:43.267Z,97139.44
2022-11-16T20:54:11.666Z,97137.25
2022-11-16T20:56:41.652Z,97124.84
2022-11-16T20:59:09.993Z,97115.72
2022-11-16T21:01:38.521Z,97113.47
2022-11-16T21:04:08.395Z,97112.34
2022-11-16T21:06:36.806Z,97101.66
2022-11-16T21:09:05.331Z,97096.81
2022-11-16T21:11:55.683Z,97098.56
2022-11-16T21:14:24.697Z,97090.66
2022-11-16T21:16:53.105Z,97082.31
2022-11-16T21:19:21.692Z,97068.50
2022-11-16T21:21:50.025Z,97060.41
2022-11-16T21:24:18.593Z,97052.69
2022-11-16T21:26:46.939Z,97055.50
2022-11-16T21:29:15.485Z,97053.53
2022-11-16T21:31:45.145Z,97048.06
2022-11-16T21:34:13.495Z,97041.28
2022-11-16T21:36:41.864Z,97035.84
2022-11-16T21:39:10.281Z,97040.06
2022-11-16T21:41:38.628Z,97027.72
2022-11-16T21:44:06.981Z,97018.97
2022-11-16T21:46:35.288Z,97017.91
2022-11-16T21:49:05.228Z,97010.75
2022-11-16T21:51:33.651Z,96993.69
2022-11-16T21:54:02.060Z,96981.75
2022-11-16T21:56:30.512Z,96970.47
2022-11-16T21:58:58.952Z,96969.38
2022-11-16T22:01:47.400Z,96958.81
2022-11-16T22:04:34.569Z,96960.31
2022-11-16T22:07:20.449Z,96961.59
2022-11-16T22:09:48.872Z,96958.66
2022-11-16T22:12:17.951Z,96952.56
2022-11-16T22:14:46.418Z,96937.47
2022-11-16T22:17:14.789Z,96932.13
2022-11-16T22:19:44.635Z,96930.41
2022-11-16T22:22:12.998Z,96918.81
2022-11-16T22:24:41.380Z,96906.38
2022-11-16T22:27:09.996Z,96905.53
2022-11-16T22:29:38.585Z,96890.25
2022-11-16T22:32:09.535Z,96879.38
2022-11-16T22:34:37.930Z,96863.88
2022-11-16T22:37:07.698Z,96851.09
2022-11-16T22:39:36.580Z,96844.25
2022-11-16T22:42:05.330Z,96849.59
2022-11-16T22:44:33.650Z,96843.94
2022-11-16T22:47:02.067Z,96840.34
2022-11-16T22:49:30.523Z,96824.25
2022-11-16T22:51:58.983Z,96830.03
2022-11-16T22:54:30.162Z,96825.28
2022-11-16T22:56:58.569Z,96810.97
2022-11-16T22:59:27.047Z,96806.53
2022-11-16T23:01:55.417Z,96798.00
2022-11-16T23:04:24.033Z,96805.78
2022-11-16T23:06:52.537Z,96784.41
2022-11-16T23:09:20.960Z,96766.56
2022-11-16T23:12:22.842Z,96764.66
2022-11-16T23:15:08.725Z,96751.41
2022-11-16T23:17:37.098Z,96751.41
2022-11-16T23:20:23.647Z,96736.50
2022-11-16T23:23:09.490Z,96717.88
2022-11-16T23:25:55.921Z,96720.19
2022-11-16T23:28:25.975Z,96705.84
2022-11-16T23:30:54.631Z,96697.41
2022-11-16T23:33:43.174Z,96697.44
2022-11-16T23:36:11.863Z,96680.34
2022-11-16T23:38:40.696Z,96679.09
2022-11-16T23:41:26.872Z,96674.22
2022-11-16T23:43:59.863Z,96664.34
2022-11-16T23:46:29.351Z,96655.69
2022-11-16T23:48:58.475Z,96659.91
2022-11-16T23:51:27.123Z,96643.91
2022-11-16T23:53:55.710Z,96639.88
2022-11-16T23:56:24.729Z,96624.22
2022-11-16T23:58:58.187Z,96623.47
